createdAt,value
2022-09-24T00:00:13.995Z,0.00
2022-09-24T00:01:16.208Z,0.00
2022-09-24T00:02:13.727Z,0.00
2022-09-24T00:03:13.074Z,0.00
2022-09-24T00:04:13.694Z,0.00
2022-09-24T00:05:13.680Z,0.00
2022-09-24T00:06:13.664Z,0.00
2022-09-24T00:07:13.103Z,0.00
2022-09-24T00:08:13.649Z,0.00
2022-09-24T00:09:13.224Z,0.00
2022-09-24T00:10:13.007Z,0.00
2022-09-24T00:11:14.026Z,0.00
2022-09-24T00:12:12.975Z,0.00
2022-09-24T00:13:13.275Z,0.00
2022-09-24T00:14:12.936Z,0.00
2022-09-24T00:15:12.980Z,0.00
2022-09-24T00:16:13.598Z,0.00
2022-09-24T00:17:12.917Z,0.00
2022-09-24T00:18:13.542Z,0.00
2022-09-24T00:19:13.531Z,0.00
2022-09-24T00:20:13.517Z,0.00
2022-09-24T00:21:12.810Z,0.00
2022-09-24T00:22:12.917Z,0.00
2022-09-24T00:23:12.880Z,0.00
2022-09-24T00:24:13.468Z,0.00
2022-09-24T00:25:13.539Z,0.00
2022-09-24T00:26:13.454Z,0.00
2022-09-24T00:27:12.779Z,0.00
2022-09-24T00:28:13.427Z,0.00
2022-09-24T00:29:13.422Z,0.00
2022-09-24T00:30:13.401Z,0.00
2022-09-24T00:31:13.407Z,0.00
2022-09-24T00:32:14.122Z,0.00
2022-09-24T00:33:13.370Z,0.00
2022-09-24T00:34:12.692Z,0.00
2022-09-24T00:35:13.353Z,0.00
2022-09-24T00:36:13.331Z,0.00
2022-09-24T00:37:13.311Z,0.00
2022-09-24T00:38:12.643Z,0.00
2022-09-24T00:39:12.625Z,0.00
2022-09-24T00:40:13.336Z,0.00
2022-09-24T00:41:12.602Z,0.00
2022-09-24T00:42:12.588Z,0.00
2022-09-24T00:43:12.624Z,0.00
2022-09-24T00:44:14.007Z,0.00
2022-09-24T00:45:13.244Z,0.00
2022-09-24T00:46:13.295Z,0.00
2022-09-24T00:47:13.215Z,0.00
2022-09-24T00:48:12.637Z,0.00
2022-09-24T00:49:13.203Z,0.00
2022-09-24T00:50:12.517Z,0.00
2022-09-24T00:51:12.486Z,0.00
2022-09-24T00:52:13.176Z,0.00
2022-09-24T00:53:13.905Z,0.00
2022-09-24T00:54:13.143Z,0.00
2022-09-24T00:55:14.020Z,0.00
2022-09-24T00:56:13.126Z,0.00
2022-09-24T00:57:13.875Z,0.00
2022-09-24T00:58:13.121Z,0.00
2022-09-24T00:59:13.095Z,0.00
2022-09-24T01:00:12.399Z,0.00
2022-09-24T01:01:13.546Z,0.00
2022-09-24T01:02:13.107Z,0.00
2022-09-24T01:03:12.373Z,0.00
2022-09-24T01:04:12.370Z,0.00
2022-09-24T01:05:13.029Z,0.00
2022-09-24T01:06:12.331Z,0.00
2022-09-24T01:07:12.350Z,0.00
2022-09-24T01:08:13.006Z,0.00
2022-09-24T01:09:12.988Z,0.00
2022-09-24T01:10:12.971Z,0.00
2022-09-24T01:11:13.720Z,0.00
2022-09-24T01:12:13.198Z,0.00
2022-09-24T01:13:12.298Z,0.00
2022-09-24T01:14:12.933Z,0.00
2022-09-24T01:15:12.925Z,0.00
2022-09-24T01:16:12.974Z,0.00
2022-09-24T01:17:12.891Z,0.00
2022-09-24T01:18:12.220Z,0.00
2022-09-24T01:19:12.883Z,0.00
2022-09-24T01:20:12.861Z,0.00
2022-09-24T01:21:12.171Z,0.00
2022-09-24T01:22:12.851Z,0.00
2022-09-24T01:23:12.835Z,0.00
2022-09-24T01:24:12.213Z,0.00
2022-09-24T01:25:12.286Z,0.00
2022-09-24T01:26:12.808Z,0.00
2022-09-24T01:27:12.797Z,0.00
2022-09-24T01:28:12.081Z,0.00
2022-09-24T01:29:12.076Z,0.00
2022-09-24T01:30:12.755Z,0.00
2022-09-24T01:31:12.777Z,0.00
2022-09-24T01:32:12.040Z,0.00
2022-09-24T01:33:13.477Z,0.00
2022-09-24T01:34:12.969Z,0.00
2022-09-24T01:35:12.697Z,0.00
2022-09-24T01:36:12.017Z,0.00
2022-09-24T01:37:12.027Z,0.00
2022-09-24T01:38:12.017Z,0.00
2022-09-24T01:39:12.665Z,0.00
2022-09-24T01:40:11.997Z,0.00
2022-09-24T01:41:12.650Z,0.00
2022-09-24T01:42:12.630Z,0.00
2022-09-24T01:43:12.716Z,0.00
2022-09-24T01:44:12.619Z,0.00
2022-09-24T01:45:11.933Z,0.00
2022-09-24T01:46:11.985Z,0.00
2022-09-24T01:47:11.898Z,0.00
2022-09-24T01:48:12.559Z,0.00
2022-09-24T01:49:12.539Z,0.00
2022-09-24T01:50:12.542Z,0.00
2022-09-24T01:51:12.675Z,0.00
2022-09-24T01:52:11.829Z,0.00
2022-09-24T01:53:12.517Z,0.00
2022-09-24T01:54:12.493Z,0.00
2022-09-24T01:55:11.829Z,0.00
2022-09-24T01:56:12.471Z,0.00
2022-09-24T01:57:12.469Z,0.00
2022-09-24T01:58:11.771Z,0.00
2022-09-24T01:59:12.675Z,0.00
2022-09-24T02:00:12.424Z,0.00
2022-09-24T02:01:11.797Z,0.00
2022-09-24T02:02:13.233Z,0.00
2022-09-24T02:03:11.728Z,0.00
2022-09-24T02:04:12.384Z,0.00
2022-09-24T02:05:12.372Z,0.00
2022-09-24T02:06:12.494Z,0.00
2022-09-24T02:07:11.715Z,0.00
2022-09-24T02:08:11.654Z,0.00
2022-09-24T02:09:11.647Z,0.00
2022-09-24T02:10:12.549Z,0.00
2022-09-24T02:11:11.634Z,0.00
2022-09-24T02:12:11.607Z,0.00
2022-09-24T02:13:11.647Z,0.00
2022-09-24T02:14:12.278Z,0.00
2022-09-24T02:15:11.585Z,0.00
2022-09-24T02:16:12.298Z,0.00
2022-09-24T02:17:11.559Z,0.00
2022-09-24T02:18:11.565Z,0.00
2022-09-24T02:19:11.650Z,0.00
2022-09-24T02:20:12.206Z,0.00
2022-09-24T02:21:12.198Z,0.00
2022-09-24T02:22:13.345Z,0.00
2022-09-24T02:23:11.517Z,0.00
2022-09-24T02:24:11.567Z,0.00
2022-09-24T02:25:12.159Z,0.00
2022-09-24T02:26:11.458Z,0.00
2022-09-24T02:27:12.146Z,0.00
2022-09-24T02:28:12.351Z,0.00
2022-09-24T02:29:11.441Z,0.00
2022-09-24T02:30:12.100Z,0.00
2022-09-24T02:31:12.112Z,0.00
2022-09-24T02:32:11.383Z,0.00
2022-09-24T02:33:12.071Z,0.00
2022-09-24T02:34:11.447Z,0.00
2022-09-24T02:35:12.049Z,0.00
2022-09-24T02:36:12.035Z,0.00
2022-09-24T02:37:12.034Z,0.00
2022-09-24T02:38:12.012Z,0.00
2022-09-24T02:39:12.007Z,0.00
2022-09-24T02:40:12.033Z,0.00
2022-09-24T02:41:11.994Z,0.00
2022-09-24T02:42:11.263Z,0.00
2022-09-24T02:43:11.949Z,0.00
2022-09-24T02:44:12.704Z,0.00
2022-09-24T02:45:11.937Z,0.00
2022-09-24T02:46:11.984Z,0.00
2022-09-24T02:47:11.927Z,0.00
2022-09-24T02:48:12.694Z,0.00
2022-09-24T02:49:11.877Z,0.00
2022-09-24T02:50:11.885Z,0.00
2022-09-24T02:51:11.876Z,0.00
2022-09-24T02:52:11.856Z,0.00
2022-09-24T02:53:11.846Z,0.00
2022-09-24T02:54:11.239Z,0.00
2022-09-24T02:55:11.827Z,0.00
2022-09-24T02:56:11.130Z,0.00
2022-09-24T02:57:11.799Z,0.00
2022-09-24T02:58:11.793Z,0.00
2022-09-24T02:59:11.787Z,0.00
2022-09-24T03:00:11.078Z,0.00
2022-09-24T03:01:11.206Z,0.00
2022-09-24T03:02:11.262Z,0.00
2022-09-24T03:03:13.434Z,0.00
2022-09-24T03:04:11.727Z,0.00
2022-09-24T03:05:11.719Z,0.00
2022-09-24T03:06:12.459Z,0.00
2022-09-24T03:07:12.571Z,0.00
2022-09-24T03:08:10.999Z,0.00
2022-09-24T03:09:11.001Z,0.00
2022-09-24T03:10:10.984Z,0.00
2022-09-24T03:11:16.292Z,0.00
2022-09-24T03:12:12.022Z,0.00
2022-09-24T03:13:11.623Z,0.00
2022-09-24T03:14:11.669Z,0.00
2022-09-24T03:15:10.931Z,0.00
2022-09-24T03:16:11.693Z,0.00
2022-09-24T03:17:10.903Z,0.00
2022-09-24T03:18:11.581Z,0.00
2022-09-24T03:19:10.896Z,0.00
2022-09-24T03:20:10.863Z,0.00
2022-09-24T03:21:11.543Z,0.00
2022-09-24T03:22:10.843Z,0.00
2022-09-24T03:23:10.834Z,0.00
2022-09-24T03:24:11.872Z,0.00
2022-09-24T03:25:10.813Z,0.00
2022-09-24T03:26:11.484Z,0.00
2022-09-24T03:27:10.786Z,0.00
2022-09-24T03:28:10.776Z,0.00
2022-09-24T03:29:10.775Z,0.00
2022-09-24T03:30:11.445Z,0.00
2022-09-24T03:31:10.787Z,0.00
2022-09-24T03:32:11.424Z,0.00
2022-09-24T03:33:12.206Z,0.00
2022-09-24T03:34:10.776Z,0.00
2022-09-24T03:35:10.707Z,0.00
2022-09-24T03:36:10.730Z,0.00
2022-09-24T03:37:10.685Z,0.00
2022-09-24T03:38:11.358Z,0.00
2022-09-24T03:39:12.098Z,0.00
2022-09-24T03:40:10.689Z,0.00
2022-09-24T03:41:10.656Z,0.00
2022-09-24T03:42:10.672Z,0.00
2022-09-24T03:43:12.076Z,0.00
2022-09-24T03:44:11.341Z,0.00
2022-09-24T03:45:10.599Z,0.00
2022-09-24T03:46:10.664Z,0.00
2022-09-24T03:47:11.259Z,0.00
2022-09-24T03:48:11.228Z,0.00
2022-09-24T03:49:10.569Z,0.00
2022-09-24T03:50:11.987Z,0.00
2022-09-24T03:51:11.239Z,0.00
2022-09-24T03:52:11.212Z,0.00
2022-09-24T03:53:11.190Z,0.00
2022-09-24T03:54:10.675Z,0.00
2022-09-24T03:55:11.178Z,0.00
2022-09-24T03:56:11.171Z,0.00
2022-09-24T03:57:10.469Z,0.00
2022-09-24T03:58:10.481Z,0.00
2022-09-24T03:59:10.455Z,0.00
2022-09-24T04:00:10.471Z,0.00
2022-09-24T04:01:11.111Z,0.00
2022-09-24T04:02:11.226Z,0.00
2022-09-24T04:03:11.388Z,0.00
2022-09-24T04:04:10.407Z,0.00
2022-09-24T04:05:11.067Z,0.00
2022-09-24T04:06:11.056Z,0.00
2022-09-24T04:07:11.055Z,0.00
2022-09-24T04:08:10.367Z,0.00
2022-09-24T04:09:11.025Z,0.00
2022-09-24T04:10:10.365Z,0.00
2022-09-24T04:11:11.016Z,0.00
2022-09-24T04:12:10.385Z,0.00
2022-09-24T04:13:10.306Z,0.00
2022-09-24T04:14:10.288Z,0.00
2022-09-24T04:15:10.300Z,0.00
2022-09-24T04:16:10.989Z,0.00
2022-09-24T04:17:10.945Z,0.00
2022-09-24T04:18:10.921Z,0.00
2022-09-24T04:19:10.917Z,0.00
2022-09-24T04:20:10.911Z,0.00
2022-09-24T04:21:10.899Z,0.00
2022-09-24T04:22:10.225Z,0.00
2022-09-24T04:23:11.147Z,0.00
2022-09-24T04:24:10.231Z,0.00
2022-09-24T04:25:14.754Z,0.00
2022-09-24T04:26:10.846Z,0.00
2022-09-24T04:27:10.168Z,0.00
2022-09-24T04:28:10.830Z,0.00
2022-09-24T04:29:10.130Z,0.00
2022-09-24T04:30:10.151Z,0.00
2022-09-24T04:31:10.219Z,0.00
2022-09-24T04:32:10.110Z,0.00
2022-09-24T04:33:10.099Z,0.00
2022-09-24T04:34:10.807Z,0.00
2022-09-24T04:35:10.753Z,0.00
2022-09-24T04:36:10.091Z,0.00
2022-09-24T04:37:11.492Z,0.00
2022-09-24T04:38:10.030Z,0.00
2022-09-24T04:39:10.711Z,0.00
2022-09-24T04:40:10.720Z,0.00
2022-09-24T04:41:10.693Z,0.00
2022-09-24T04:42:10.753Z,0.00
2022-09-24T04:43:09.976Z,0.00
2022-09-24T04:44:09.994Z,0.00
2022-09-24T04:45:10.642Z,0.00
2022-09-24T04:46:10.717Z,0.00
2022-09-24T04:47:11.383Z,0.00
2022-09-24T04:48:10.594Z,0.00
2022-09-24T04:49:10.695Z,0.00
2022-09-24T04:50:10.586Z,0.00
2022-09-24T04:51:10.583Z,0.00
2022-09-24T04:52:09.886Z,0.00
2022-09-24T04:53:09.882Z,0.00
2022-09-24T04:54:09.927Z,0.00
2022-09-24T04:55:10.536Z,0.00
2022-09-24T04:56:09.837Z,0.00
2022-09-24T04:57:09.839Z,4.00
2022-09-24T04:58:10.507Z,0.00
2022-09-24T04:59:10.539Z,4.00
2022-09-24T05:00:11.367Z,4.00
2022-09-24T05:01:09.796Z,4.00
2022-09-24T05:02:10.090Z,4.00
2022-09-24T05:03:10.758Z,4.00
2022-09-24T05:04:09.779Z,8.00
2022-09-24T05:05:10.428Z,8.00
2022-09-24T05:06:10.420Z,12.00
2022-09-24T05:07:10.699Z,12.00
2022-09-24T05:08:09.738Z,12.00
2022-09-24T05:09:12.711Z,16.00
2022-09-24T05:10:09.690Z,16.00
2022-09-24T05:11:10.375Z,20.00
2022-09-24T05:12:11.219Z,20.00
2022-09-24T05:13:09.721Z,24.00
2022-09-24T05:14:09.680Z,20.00
2022-09-24T05:15:10.337Z,24.00
2022-09-24T05:16:10.009Z,24.00
2022-09-24T05:17:10.302Z,24.00
2022-09-24T05:18:10.283Z,24.00
2022-09-24T05:19:11.069Z,28.00
2022-09-24T05:20:10.269Z,32.00
2022-09-24T05:21:09.575Z,32.00
2022-09-24T05:22:10.251Z,32.00
2022-09-24T05:23:11.004Z,32.00
2022-09-24T05:24:10.211Z,36.00
2022-09-24T05:25:10.972Z,36.00
2022-09-24T05:26:09.530Z,40.00
2022-09-24T05:27:09.514Z,36.00
2022-09-24T05:28:10.183Z,40.00
2022-09-24T05:29:10.503Z,44.00
2022-09-24T05:30:10.456Z,48.00
2022-09-24T05:31:10.204Z,56.00
2022-09-24T05:32:10.144Z,60.00
2022-09-24T05:33:10.139Z,64.00
2022-09-24T05:34:09.457Z,60.00
2022-09-24T05:35:09.423Z,56.00
2022-09-24T05:36:10.106Z,56.00
2022-09-24T05:37:10.094Z,56.00
2022-09-24T05:38:09.443Z,64.00
2022-09-24T05:39:09.467Z,60.00
2022-09-24T05:40:10.110Z,76.00
2022-09-24T05:41:09.385Z,104.00
2022-09-24T05:42:10.030Z,124.00
2022-09-24T05:43:10.027Z,128.00
2022-09-24T05:44:09.331Z,132.00
2022-09-24T05:45:10.008Z,144.00
2022-09-24T05:46:10.038Z,172.00
2022-09-24T05:47:09.337Z,208.00
2022-09-24T05:48:10.271Z,236.00
2022-09-24T05:49:09.346Z,268.00
2022-09-24T05:50:09.975Z,312.00
2022-09-24T05:51:10.711Z,356.00
2022-09-24T05:52:09.933Z,392.00
2022-09-24T05:53:09.269Z,436.00
2022-09-24T05:54:09.915Z,492.00
2022-09-24T05:55:10.652Z,512.00
2022-09-24T05:56:09.270Z,540.00
2022-09-24T05:57:09.880Z,548.00
2022-09-24T05:58:09.861Z,560.00
2022-09-24T05:59:09.277Z,568.00
2022-09-24T06:00:09.834Z,544.00
2022-09-24T06:01:09.833Z,568.00
2022-09-24T06:02:09.936Z,584.00
2022-09-24T06:03:09.217Z,596.00
2022-09-24T06:04:09.487Z,648.00
2022-09-24T06:05:09.102Z,704.00
2022-09-24T06:06:09.774Z,732.00
2022-09-24T06:07:09.773Z,724.00
2022-09-24T06:08:09.133Z,728.00
2022-09-24T06:09:09.796Z,740.00
2022-09-24T06:10:09.734Z,764.00
2022-09-24T06:11:09.685Z,804.00
2022-09-24T06:12:09.171Z,896.00
2022-09-24T06:13:09.933Z,1000.00
2022-09-24T06:14:10.462Z,1072.00
2022-09-24T06:15:09.682Z,1120.00
2022-09-24T06:16:09.745Z,1164.00
2022-09-24T06:17:09.666Z,1228.00
2022-09-24T06:18:09.718Z,1252.00
2022-09-24T06:19:09.733Z,1264.00
2022-09-24T06:20:10.410Z,1288.00
2022-09-24T06:21:08.956Z,1308.00
2022-09-24T06:22:08.917Z,1300.00
2022-09-24T06:23:08.906Z,1288.00
2022-09-24T06:24:08.947Z,1296.00
2022-09-24T06:25:08.891Z,1288.00
2022-09-24T06:26:09.557Z,1272.00
2022-09-24T06:27:09.539Z,1272.00
2022-09-24T06:28:09.528Z,1276.00
2022-09-24T06:29:09.571Z,1288.00
2022-09-24T06:30:08.885Z,1296.00
2022-09-24T06:31:09.539Z,1308.00
2022-09-24T06:32:09.499Z,1328.00
2022-09-24T06:33:08.798Z,1320.00
2022-09-24T06:34:09.470Z,1348.00
2022-09-24T06:35:09.522Z,1360.00
2022-09-24T06:36:08.840Z,1348.00
2022-09-24T06:37:09.433Z,1344.00
2022-09-24T06:38:09.433Z,1340.00
2022-09-24T06:39:08.799Z,1384.00
2022-09-24T06:40:09.511Z,1456.00
2022-09-24T06:41:10.196Z,1524.00
2022-09-24T06:42:09.372Z,1556.00
2022-09-24T06:43:09.371Z,1592.00
2022-09-24T06:44:09.364Z,1624.00
2022-09-24T06:45:08.685Z,1664.00
2022-09-24T06:46:09.382Z,1696.00
2022-09-24T06:47:09.341Z,1728.00
2022-09-24T06:48:09.314Z,1760.00
2022-09-24T06:49:09.349Z,1812.00
2022-09-24T06:50:08.613Z,1844.00
2022-09-24T06:51:08.626Z,1892.00
2022-09-24T06:52:09.535Z,1928.00
2022-09-24T06:53:09.256Z,1968.00
2022-09-24T06:54:08.596Z,1996.00
2022-09-24T06:55:09.234Z,2028.00
2022-09-24T06:56:08.535Z,2052.00
2022-09-24T06:57:09.222Z,2100.00
2022-09-24T06:58:09.238Z,2124.00
2022-09-24T06:59:08.538Z,2172.00
2022-09-24T07:00:09.182Z,2248.00
2022-09-24T07:01:09.267Z,2300.00
2022-09-24T07:02:09.205Z,2364.00
2022-09-24T07:03:09.918Z,2372.00
2022-09-24T07:04:09.146Z,2412.00
2022-09-24T07:05:09.141Z,2424.00
2022-09-24T07:06:09.115Z,2452.00
2022-09-24T07:07:08.483Z,2464.00
2022-09-24T07:08:08.438Z,2500.00
2022-09-24T07:09:09.149Z,2488.00
2022-09-24T07:10:09.070Z,2480.00
2022-09-24T07:11:09.066Z,2476.00
2022-09-24T07:12:09.913Z,2556.00
2022-09-24T07:13:08.361Z,2604.00
2022-09-24T07:14:09.810Z,2628.00
2022-09-24T07:15:09.284Z,2628.00
2022-09-24T07:16:09.822Z,2644.00
2022-09-24T07:17:09.761Z,2628.00
2022-09-24T07:18:09.804Z,2632.00
2022-09-24T07:19:09.861Z,2584.00
2022-09-24T07:20:09.732Z,2532.00
2022-09-24T07:21:08.292Z,2580.00
2022-09-24T07:22:09.723Z,2612.00
2022-09-24T07:23:08.269Z,2616.00
2022-09-24T07:24:09.711Z,2588.00
2022-09-24T07:25:08.921Z,2564.00
2022-09-24T07:26:08.256Z,2532.00
2022-09-24T07:27:08.264Z,2484.00
2022-09-24T07:28:08.883Z,2480.00
2022-09-24T07:29:08.937Z,2484.00
2022-09-24T07:30:09.668Z,2460.00
2022-09-24T07:31:08.878Z,2412.00
2022-09-24T07:32:08.440Z,2380.00
2022-09-24T07:33:08.144Z,2352.00
2022-09-24T07:34:08.263Z,2332.00
2022-09-24T07:35:08.128Z,2312.00
2022-09-24T07:36:08.857Z,2292.00
2022-09-24T07:37:08.125Z,2252.00
2022-09-24T07:38:08.802Z,2220.00
2022-09-24T07:39:08.755Z,2192.00
2022-09-24T07:40:08.109Z,2164.00
2022-09-24T07:41:08.138Z,2120.00
2022-09-24T07:42:08.728Z,2100.00
2022-09-24T07:43:08.727Z,2064.00
2022-09-24T07:44:08.122Z,2036.00
2022-09-24T07:45:08.698Z,2004.00
2022-09-24T07:46:08.128Z,1980.00
2022-09-24T07:47:11.013Z,1964.00
2022-09-24T07:48:10.457Z,1968.00
2022-09-24T07:49:08.697Z,1960.00
2022-09-24T07:50:07.990Z,1944.00
2022-09-24T07:51:08.639Z,1932.00
2022-09-24T07:52:08.619Z,1932.00
2022-09-24T07:53:07.937Z,1936.00
2022-09-24T07:54:08.088Z,1936.00
2022-09-24T07:55:08.611Z,1912.00
2022-09-24T07:56:09.322Z,1892.00
2022-09-24T07:57:08.569Z,1884.00
2022-09-24T07:58:08.572Z,1872.00
2022-09-24T07:59:07.862Z,1840.00
2022-09-24T08:00:07.889Z,1800.00
2022-09-24T08:01:08.528Z,1760.00
2022-09-24T08:02:08.541Z,1764.00
2022-09-24T08:03:07.811Z,1780.00
2022-09-24T08:04:08.692Z,1740.00
2022-09-24T08:05:08.484Z,1752.00
2022-09-24T08:06:07.826Z,1772.00
2022-09-24T08:07:07.837Z,1832.00
2022-09-24T08:08:08.445Z,1880.00
2022-09-24T08:09:08.437Z,1912.00
2022-09-24T08:10:07.777Z,1920.00
2022-09-24T08:11:08.418Z,1980.00
2022-09-24T08:12:08.397Z,2024.00
2022-09-24T08:13:09.150Z,2068.00
2022-09-24T08:14:07.703Z,2120.00
2022-09-24T08:15:08.374Z,2148.00
2022-09-24T08:16:07.765Z,2160.00
2022-09-24T08:17:07.669Z,2180.00
2022-09-24T08:18:07.682Z,2244.00
2022-09-24T08:19:08.587Z,2300.00
2022-09-24T08:20:07.661Z,2348.00
2022-09-24T08:21:08.322Z,2384.00
2022-09-24T08:22:07.813Z,2424.00
2022-09-24T08:23:08.289Z,2452.00
2022-09-24T08:24:07.803Z,2492.00
2022-09-24T08:25:08.259Z,2528.00
2022-09-24T08:26:08.259Z,2552.00
2022-09-24T08:27:07.691Z,2568.00
2022-09-24T08:28:07.577Z,2588.00
2022-09-24T08:29:08.230Z,2624.00
2022-09-24T08:30:07.560Z,2648.00
2022-09-24T08:31:08.251Z,2656.00
2022-09-24T08:32:07.506Z,2680.00
2022-09-24T08:33:07.511Z,2716.00
2022-09-24T08:34:07.568Z,2748.00
2022-09-24T08:35:08.155Z,2768.00
2022-09-24T08:36:07.668Z,2796.00
2022-09-24T08:37:08.162Z,2824.00
2022-09-24T08:38:08.431Z,2840.00
2022-09-24T08:39:07.462Z,2872.00
2022-09-24T08:40:07.458Z,2908.00
2022-09-24T08:41:07.453Z,2944.00
2022-09-24T08:42:07.416Z,2968.00
2022-09-24T08:43:08.336Z,2980.00
2022-09-24T08:44:08.124Z,2996.00
2022-09-24T08:45:07.369Z,3036.00
2022-09-24T08:46:07.431Z,3052.00
2022-09-24T08:47:08.025Z,3072.00
2022-09-24T08:48:09.304Z,3068.00
2022-09-24T08:49:07.999Z,3056.00
2022-09-24T08:50:08.765Z,3048.00
2022-09-24T08:51:09.296Z,3024.00
2022-09-24T08:52:07.965Z,2960.00
2022-09-24T08:53:07.303Z,2888.00
2022-09-24T08:54:07.988Z,2824.00
2022-09-24T08:55:08.738Z,2828.00
2022-09-24T08:56:07.927Z,2752.00
2022-09-24T08:57:08.317Z,2880.00
2022-09-24T08:58:07.896Z,2932.00
2022-09-24T08:59:07.887Z,2988.00
2022-09-24T09:00:07.938Z,2928.00
2022-09-24T09:01:07.312Z,2924.00
2022-09-24T09:02:08.777Z,2892.00
2022-09-24T09:03:09.147Z,2928.00
2022-09-24T09:04:07.204Z,2972.00
2022-09-24T09:05:08.580Z,2712.00
2022-09-24T09:06:08.621Z,2372.00
2022-09-24T09:07:08.090Z,2136.00
2022-09-24T09:08:27.236Z,2204.00
2022-09-24T09:09:08.194Z,2084.00
2022-09-24T09:10:07.152Z,2088.00
2022-09-24T09:11:07.769Z,2152.00
2022-09-24T09:12:07.753Z,2432.00
2022-09-24T09:13:07.091Z,2764.00
2022-09-24T09:14:07.731Z,3068.00
2022-09-24T09:15:07.723Z,2596.00
2022-09-24T09:16:07.746Z,2436.00
2022-09-24T09:17:07.103Z,2860.00
2022-09-24T09:18:07.956Z,2732.00
2022-09-24T09:19:06.993Z,3004.00
2022-09-24T09:20:07.023Z,3512.00
2022-09-24T09:21:07.654Z,3748.00
2022-09-24T09:22:07.645Z,3876.00
2022-09-24T09:23:07.645Z,3876.00
2022-09-24T09:24:08.934Z,3840.00
2022-09-24T09:25:08.452Z,3928.00
2022-09-24T09:26:07.605Z,4000.00
2022-09-24T09:27:06.910Z,3976.00
2022-09-24T09:28:07.585Z,3936.00
2022-09-24T09:29:07.602Z,4056.00
2022-09-24T09:30:11.784Z,4060.00
2022-09-24T09:31:07.975Z,4032.00
2022-09-24T09:32:07.832Z,4076.00
2022-09-24T09:33:06.886Z,4132.00
2022-09-24T09:34:08.327Z,4144.00
2022-09-24T09:35:08.257Z,4028.00
2022-09-24T09:36:07.580Z,4000.00
2022-09-24T09:37:07.479Z,3916.00
2022-09-24T09:38:07.479Z,3796.00
2022-09-24T09:39:07.491Z,3604.00
2022-09-24T09:40:06.828Z,3368.00
2022-09-24T09:41:08.738Z,3404.00
2022-09-24T09:42:07.430Z,3192.00
2022-09-24T09:43:07.414Z,3108.00
2022-09-24T09:44:06.743Z,3020.00
2022-09-24T09:45:07.391Z,2688.00
2022-09-24T09:46:07.459Z,2484.00
2022-09-24T09:47:06.766Z,3012.00
2022-09-24T09:48:07.362Z,3116.00
2022-09-24T09:49:07.356Z,2756.00
2022-09-24T09:50:08.110Z,2572.00
2022-09-24T09:51:07.332Z,2932.00
2022-09-24T09:52:07.322Z,3352.00
2022-09-24T09:53:07.321Z,3200.00
2022-09-24T09:54:07.567Z,3480.00
2022-09-24T09:55:06.603Z,3572.00
2022-09-24T09:56:07.275Z,3644.00
2022-09-24T09:57:07.255Z,3376.00
2022-09-24T09:58:07.275Z,3040.00
2022-09-24T09:59:07.281Z,3164.00
2022-09-24T10:00:06.588Z,3272.00
2022-09-24T10:01:07.217Z,3304.00
2022-09-24T10:02:07.253Z,3408.00
2022-09-24T10:03:06.661Z,3648.00
2022-09-24T10:04:07.186Z,3880.00
2022-09-24T10:05:06.506Z,4140.00
2022-09-24T10:06:06.523Z,4268.00
2022-09-24T10:07:06.543Z,4352.00
2022-09-24T10:08:08.399Z,4388.00
2022-09-24T10:09:08.410Z,4404.00
2022-09-24T10:10:07.123Z,4420.00
2022-09-24T10:11:07.108Z,4328.00
2022-09-24T10:12:07.277Z,4268.00
2022-09-24T10:13:07.090Z,4340.00
2022-09-24T10:14:07.401Z,4400.00
2022-09-24T10:15:06.449Z,4468.00
2022-09-24T10:16:07.592Z,4348.00
2022-09-24T10:17:06.392Z,4444.00
2022-09-24T10:18:06.391Z,3972.00
2022-09-24T10:19:07.025Z,3996.00
2022-09-24T10:20:07.024Z,4124.00
2022-09-24T10:21:06.331Z,4448.00
2022-09-24T10:22:06.312Z,4492.00
2022-09-24T10:23:08.259Z,4424.00
2022-09-24T10:24:06.952Z,4336.00
2022-09-24T10:25:06.952Z,4132.00
2022-09-24T10:26:06.950Z,4500.00
2022-09-24T10:27:06.944Z,4668.00
2022-09-24T10:28:06.247Z,4352.00
2022-09-24T10:29:06.274Z,3756.00
2022-09-24T10:30:06.669Z,3300.00
2022-09-24T10:31:06.261Z,2820.00
2022-09-24T10:32:06.888Z,2948.00
2022-09-24T10:33:06.235Z,3408.00
2022-09-24T10:34:06.865Z,4448.00
2022-09-24T10:35:06.292Z,4228.00
2022-09-24T10:36:06.855Z,4328.00
2022-09-24T10:37:10.933Z,3924.00
2022-09-24T10:38:06.186Z,4064.00
2022-09-24T10:39:06.177Z,4404.00
2022-09-24T10:40:06.277Z,4480.00
2022-09-24T10:41:06.127Z,4280.00
2022-09-24T10:42:06.767Z,3848.00
2022-09-24T10:43:06.107Z,3596.00
2022-09-24T10:44:06.120Z,4016.00
2022-09-24T10:45:06.078Z,3968.00
2022-09-24T10:46:06.108Z,4076.00
2022-09-24T10:47:06.120Z,3784.00
2022-09-24T10:48:06.800Z,2916.00
2022-09-24T10:49:06.705Z,2556.00
2022-09-24T10:50:06.020Z,2388.00
2022-09-24T10:51:06.679Z,2460.00
2022-09-24T10:52:06.670Z,2188.00
2022-09-24T10:53:06.667Z,2148.00
2022-09-24T10:54:06.119Z,2092.00
2022-09-24T10:55:06.011Z,1932.00
2022-09-24T10:56:06.000Z,2076.00
2022-09-24T10:57:06.640Z,1936.00
2022-09-24T10:58:06.884Z,1884.00
2022-09-24T10:59:05.944Z,1728.00
2022-09-24T11:00:05.928Z,1636.00
2022-09-24T11:01:06.885Z,1580.00
2022-09-24T11:02:07.862Z,1680.00
2022-09-24T11:03:05.992Z,1516.00
2022-09-24T11:04:05.955Z,1756.00
2022-09-24T11:05:06.543Z,2044.00
2022-09-24T11:06:05.849Z,2648.00
2022-09-24T11:07:06.517Z,2816.00
2022-09-24T11:08:05.825Z,3016.00
2022-09-24T11:09:05.820Z,2960.00
2022-09-24T11:10:06.715Z,2748.00
2022-09-24T11:11:07.726Z,2464.00
2022-09-24T11:12:06.456Z,2304.00
2022-09-24T11:13:05.791Z,2000.00
2022-09-24T11:14:06.466Z,1776.00
2022-09-24T11:15:06.419Z,1668.00
2022-09-24T11:16:05.785Z,1640.00
2022-09-24T11:17:07.167Z,1456.00
2022-09-24T11:18:06.413Z,1388.00
2022-09-24T11:19:06.388Z,1532.00
2022-09-24T11:20:06.369Z,1696.00
2022-09-24T11:21:06.358Z,1916.00
2022-09-24T11:22:06.642Z,2384.00
2022-09-24T11:23:05.749Z,2536.00
2022-09-24T11:24:06.343Z,2640.00
2022-09-24T11:25:05.921Z,2672.00
2022-09-24T11:26:05.641Z,2648.00
2022-09-24T11:27:06.293Z,3404.00
2022-09-24T11:28:06.272Z,3616.00
2022-09-24T11:29:06.445Z,4160.00
2022-09-24T11:30:06.248Z,4496.00
2022-09-24T11:31:06.607Z,4584.00
2022-09-24T11:32:06.539Z,4604.00
2022-09-24T11:33:06.553Z,4768.00
2022-09-24T11:34:06.507Z,4784.00
2022-09-24T11:35:06.206Z,4752.00
2022-09-24T11:36:06.224Z,4312.00
2022-09-24T11:37:06.183Z,4240.00
2022-09-24T11:38:06.484Z,4176.00
2022-09-24T11:39:05.477Z,4052.00
2022-09-24T11:40:06.957Z,3888.00
2022-09-24T11:41:06.241Z,4060.00
2022-09-24T11:42:05.640Z,4256.00
2022-09-24T11:43:05.498Z,4332.00
2022-09-24T11:44:07.051Z,4296.00
2022-09-24T11:45:05.518Z,4276.00
2022-09-24T11:46:05.465Z,4320.00
2022-09-24T11:47:08.626Z,4292.00
2022-09-24T11:48:07.400Z,4216.00
2022-09-24T11:49:05.414Z,4088.00
2022-09-24T11:50:05.418Z,4020.00
2022-09-24T11:51:05.471Z,3848.00
2022-09-24T11:52:06.069Z,3696.00
2022-09-24T11:53:06.399Z,3580.00
2022-09-24T11:54:06.340Z,3632.00
2022-09-24T11:55:06.304Z,3428.00
2022-09-24T11:56:10.835Z,3312.00
2022-09-24T11:57:07.260Z,3360.00
2022-09-24T11:58:06.230Z,2932.00
2022-09-24T11:59:05.953Z,2848.00
2022-09-24T12:00:05.913Z,2380.00
2022-09-24T12:01:05.922Z,2284.00
2022-09-24T12:02:05.948Z,2336.00
2022-09-24T12:03:05.284Z,2628.00
2022-09-24T12:04:05.939Z,3192.00
2022-09-24T12:05:05.882Z,3620.00
2022-09-24T12:06:05.864Z,3528.00
2022-09-24T12:07:05.863Z,3384.00
2022-09-24T12:08:05.854Z,3572.00
2022-09-24T12:09:05.835Z,3516.00
2022-09-24T12:10:05.181Z,3692.00
2022-09-24T12:11:05.814Z,3720.00
2022-09-24T12:12:05.164Z,3388.00
2022-09-24T12:13:05.797Z,3436.00
2022-09-24T12:14:05.850Z,3124.00
2022-09-24T12:15:05.767Z,3100.00
2022-09-24T12:16:06.593Z,2756.00
2022-09-24T12:17:05.065Z,2524.00
2022-09-24T12:18:05.087Z,2104.00
2022-09-24T12:19:05.479Z,1908.00
2022-09-24T12:20:05.728Z,1716.00
2022-09-24T12:21:05.028Z,1756.00
2022-09-24T12:22:05.751Z,1920.00
2022-09-24T12:23:05.692Z,2048.00
2022-09-24T12:24:05.111Z,1968.00
2022-09-24T12:25:05.011Z,1636.00
2022-09-24T12:26:05.001Z,1412.00
2022-09-24T12:27:05.640Z,1184.00
2022-09-24T12:28:05.630Z,1232.00
2022-09-24T12:29:05.629Z,1160.00
2022-09-24T12:30:05.905Z,1116.00
2022-09-24T12:31:09.974Z,1024.00
2022-09-24T12:32:05.902Z,1280.00
2022-09-24T12:33:05.575Z,1460.00
2022-09-24T12:34:05.580Z,1788.00
2022-09-24T12:35:05.560Z,2200.00
2022-09-24T12:36:05.543Z,2432.00